createdAt,value
2023-02-04T00:00:16.274Z,7.43
2023-02-04T00:02:43.315Z,7.43
2023-02-04T00:05:14.142Z,7.42
2023-02-04T00:07:41.517Z,7.42
2023-02-04T00:10:10.367Z,7.42
2023-02-04T00:12:37.280Z,7.41
2023-02-04T00:15:05.320Z,7.41
2023-02-04T00:17:32.235Z,7.38
2023-02-04T00:19:59.155Z,7.41
2023-02-04T00:22:28.218Z,7.42
2023-02-04T00:24:55.155Z,7.40
2023-02-04T00:27:22.375Z,7.38
2023-02-04T00:29:49.290Z,7.39
2023-02-04T00:32:16.322Z,7.39
2023-02-04T00:34:43.298Z,7.37
2023-02-04T00:37:10.240Z,7.40
2023-02-04T00:39:38.208Z,7.41
2023-02-04T00:42:06.883Z,7.44
2023-02-04T00:44:36.560Z,7.43
2023-02-04T00:47:04.228Z,7.43
2023-02-04T00:49:31.188Z,7.43
2023-02-04T00:51:58.145Z,7.41
2023-02-04T00:54:26.514Z,7.41
2023-02-04T00:56:53.688Z,7.38
2023-02-04T00:59:20.594Z,7.35
2023-02-04T01:01:47.512Z,7.25
2023-02-04T01:04:15.051Z,7.25
2023-02-04T01:06:42.007Z,7.15
2023-02-04T01:09:10.221Z,7.14
2023-02-04T01:11:37.555Z,7.07
2023-02-04T01:14:04.655Z,7.06
2023-02-04T01:16:32.258Z,6.99
2023-02-04T01:19:00.368Z,6.96
2023-02-04T01:21:27.326Z,6.88
2023-02-04T01:23:54.316Z,6.83
2023-02-04T01:26:21.658Z,6.86
2023-02-04T01:28:48.592Z,6.80
2023-02-04T01:31:16.238Z,6.78
2023-02-04T01:33:43.435Z,6.72
2023-02-04T01:36:11.884Z,6.72
2023-02-04T01:38:38.791Z,6.67
2023-02-04T01:41:06.356Z,6.67
2023-02-04T01:43:34.131Z,6.65
2023-02-04T01:46:02.578Z,6.63
2023-02-04T01:48:30.488Z,6.46
2023-02-04T01:51:26.928Z,6.54
2023-02-04T01:53:55.346Z,6.53
2023-02-04T01:56:26.758Z,6.54
2023-02-04T01:58:57.622Z,6.52
2023-02-04T02:01:46.659Z,6.46
2023-02-04T02:04:17.667Z,6.46
2023-02-04T02:06:52.446Z,6.46
2023-02-04T02:09:19.895Z,6.43
2023-02-04T02:11:47.067Z,6.45
2023-02-04T02:14:15.019Z,6.45
2023-02-04T02:16:42.072Z,6.45
2023-02-04T02:19:14.755Z,6.41
2023-02-04T02:21:55.024Z,6.41
2023-02-04T02:24:30.166Z,6.41
2023-02-04T02:27:01.332Z,6.29
2023-02-04T02:29:28.552Z,6.34
2023-02-04T02:31:59.883Z,6.35
2023-02-04T02:34:28.517Z,6.29
2023-02-04T02:36:57.009Z,6.24
2023-02-04T02:39:25.188Z,6.24
2023-02-04T02:41:52.920Z,6.22
2023-02-04T02:44:19.966Z,6.17
2023-02-04T02:46:46.935Z,6.16
2023-02-04T02:49:19.323Z,6.10
2023-02-04T02:51:48.730Z,6.10
2023-02-04T02:54:29.894Z,6.07
2023-02-04T02:57:00.491Z,6.02
2023-02-04T02:59:27.836Z,6.00
2023-02-04T03:02:01.526Z,5.97
2023-02-04T03:04:34.644Z,5.92
2023-02-04T03:07:03.342Z,5.88
2023-02-04T03:09:30.508Z,5.83
2023-02-04T03:11:57.459Z,5.80
2023-02-04T03:14:25.619Z,5.74
2023-02-04T03:16:54.406Z,5.71
2023-02-04T03:19:23.508Z,5.69
2023-02-04T03:21:50.523Z,5.67
2023-02-04T03:24:17.833Z,5.64
2023-02-04T03:26:44.905Z,5.63
2023-02-04T03:29:12.431Z,5.55
2023-02-04T03:31:39.514Z,5.46
2023-02-04T03:34:06.473Z,5.47
2023-02-04T03:36:33.437Z,5.44
2023-02-04T03:39:00.404Z,5.42
2023-02-04T03:41:27.306Z,5.35
2023-02-04T03:43:54.199Z,5.28
2023-02-04T03:46:23.616Z,5.28
2023-02-04T03:48:50.559Z,5.24
2023-02-04T03:51:17.536Z,5.18
2023-02-04T03:53:44.440Z,5.19
2023-02-04T03:56:11.363Z,5.18
2023-02-04T03:58:38.428Z,5.14
2023-02-04T04:01:05.468Z,5.14
2023-02-04T04:03:32.372Z,5.13
2023-02-04T04:05:59.259Z,5.09
2023-02-04T04:08:26.157Z,5.06
2023-02-04T04:10:53.024Z,5.07
2023-02-04T04:13:19.919Z,5.00
2023-02-04T04:15:46.851Z,5.02
2023-02-04T04:18:13.780Z,4.98
2023-02-04T04:20:40.685Z,5.00
2023-02-04T04:23:07.583Z,4.97
2023-02-04T04:25:34.551Z,4.95
2023-02-04T04:28:01.809Z,4.90
2023-02-04T04:30:28.828Z,4.87
2023-02-04T04:32:55.749Z,4.86
2023-02-04T04:35:22.694Z,4.88
2023-02-04T04:37:49.666Z,4.85
2023-02-04T04:40:16.554Z,4.84
2023-02-04T04:42:43.500Z,4.85
2023-02-04T04:45:11.640Z,4.87
2023-02-04T04:47:38.576Z,4.84
2023-02-04T04:50:05.803Z,4.86
2023-02-04T04:52:32.750Z,4.84
2023-02-04T04:54:59.677Z,4.81
2023-02-04T04:57:26.581Z,4.79
2023-02-04T04:59:53.495Z,4.78
2023-02-04T05:02:20.450Z,4.76
2023-02-04T05:04:47.374Z,4.74
2023-02-04T05:07:14.266Z,4.77
2023-02-04T05:09:41.403Z,4.72
2023-02-04T05:12:08.473Z,4.70
2023-02-04T05:14:35.479Z,4.72
2023-02-04T05:17:02.393Z,4.65
2023-02-04T05:19:29.325Z,4.65
2023-02-04T05:21:57.409Z,4.59
2023-02-04T05:24:24.368Z,4.63
2023-02-04T05:26:51.362Z,4.58
2023-02-04T05:29:18.245Z,4.53
2023-02-04T05:31:45.251Z,4.50
2023-02-04T05:34:12.167Z,4.50
2023-02-04T05:36:39.076Z,4.47
2023-02-04T05:39:06.051Z,4.44
2023-02-04T05:41:33.130Z,4.43
2023-02-04T05:44:00.108Z,4.39
2023-02-04T05:46:27.094Z,4.38
2023-02-04T05:48:54.042Z,4.41
2023-02-04T05:51:20.929Z,4.39
2023-02-04T05:53:47.885Z,4.37
2023-02-04T05:56:14.812Z,4.31
2023-02-04T05:58:41.850Z,4.35
2023-02-04T06:01:08.912Z,4.35
2023-02-04T06:03:35.972Z,4.32
2023-02-04T06:06:02.986Z,4.31
2023-02-04T06:08:29.894Z,4.33
2023-02-04T06:10:56.818Z,4.29
2023-02-04T06:13:24.031Z,4.25
2023-02-04T06:15:50.948Z,4.20
2023-02-04T06:18:17.966Z,4.23
2023-02-04T06:20:44.877Z,4.24
2023-02-04T06:23:11.752Z,4.22
2023-02-04T06:25:38.708Z,4.21
2023-02-04T06:28:05.658Z,4.17
2023-02-04T06:30:33.220Z,4.13
2023-02-04T06:33:00.362Z,4.10
2023-02-04T06:35:27.244Z,4.13
2023-02-04T06:37:54.148Z,4.09
2023-02-04T06:40:21.042Z,4.09
2023-02-04T06:42:48.094Z,4.01
2023-02-04T06:45:15.091Z,4.06
2023-02-04T06:47:42.098Z,4.05
2023-02-04T06:50:09.591Z,4.08
2023-02-04T06:52:37.173Z,4.04
2023-02-04T06:55:04.419Z,4.02
2023-02-04T06:57:31.448Z,3.98
2023-02-04T06:59:58.426Z,3.95
2023-02-04T07:02:25.370Z,3.92
2023-02-04T07:04:52.261Z,3.89
2023-02-04T07:07:19.187Z,3.89
2023-02-04T07:09:46.072Z,3.87
2023-02-04T07:12:14.374Z,3.87
2023-02-04T07:14:42.835Z,3.81
2023-02-04T07:17:09.836Z,3.80
2023-02-04T07:19:36.920Z,3.78
2023-02-04T07:22:05.036Z,3.78
2023-02-04T07:24:32.197Z,3.74
2023-02-04T07:26:59.748Z,3.69
2023-02-04T07:29:27.209Z,3.62
2023-02-04T07:31:54.658Z,3.58
2023-02-04T07:34:21.805Z,3.54
2023-02-04T07:36:48.925Z,3.51
2023-02-04T07:39:15.915Z,3.48
2023-02-04T07:41:42.780Z,3.44
2023-02-04T07:44:12.188Z,3.46
2023-02-04T07:46:39.130Z,3.45
2023-02-04T07:49:06.048Z,3.42
2023-02-04T07:51:33.180Z,3.42
2023-02-04T07:54:00.195Z,3.41
2023-02-04T07:56:27.112Z,3.50
2023-02-04T07:58:54.082Z,3.55
2023-02-04T08:01:21.039Z,3.56
2023-02-04T08:03:47.953Z,3.63
2023-02-04T08:06:14.860Z,3.68
2023-02-04T08:08:41.772Z,3.74
2023-02-04T08:11:08.745Z,3.78
2023-02-04T08:13:35.738Z,3.83
2023-02-04T08:16:02.757Z,3.84
2023-02-04T08:18:30.312Z,3.88
2023-02-04T08:20:59.032Z,3.99
2023-02-04T08:23:25.947Z,4.06
2023-02-04T08:25:52.870Z,4.09
2023-02-04T08:28:19.879Z,4.14
2023-02-04T08:30:46.948Z,4.22
2023-02-04T08:33:13.873Z,4.34
2023-02-04T08:35:40.862Z,4.44
2023-02-04T08:38:07.779Z,4.53
2023-02-04T08:40:34.862Z,4.57
2023-02-04T08:43:01.761Z,4.52
2023-02-04T08:45:28.679Z,4.50
2023-02-04T08:47:55.619Z,4.50
2023-02-04T08:50:22.508Z,4.48
2023-02-04T08:52:49.401Z,4.48
2023-02-04T08:55:16.352Z,4.56
2023-02-04T08:57:43.266Z,4.68
2023-02-04T09:00:12.241Z,4.82
2023-02-04T09:02:39.168Z,5.02
2023-02-04T09:05:06.646Z,5.23
2023-02-04T09:07:33.580Z,5.54
2023-02-04T09:10:00.544Z,5.70
2023-02-04T09:12:27.459Z,5.91
2023-02-04T09:14:54.391Z,6.06
2023-02-04T09:17:21.328Z,6.16
2023-02-04T09:19:48.198Z,6.23
2023-02-04T09:22:15.388Z,6.24
2023-02-04T09:24:42.282Z,6.23
2023-02-04T09:27:09.305Z,6.28
2023-02-04T09:29:36.208Z,6.36
2023-02-04T09:32:03.137Z,6.57
2023-02-04T09:34:30.065Z,6.74
2023-02-04T09:36:57.020Z,6.95
2023-02-04T09:39:23.889Z,7.08
2023-02-04T09:41:53.875Z,7.19
2023-02-04T09:44:25.183Z,7.26
2023-02-04T09:46:56.341Z,7.37
2023-02-04T09:49:23.755Z,7.46
2023-02-04T09:51:51.284Z,7.55
2023-02-04T09:54:22.852Z,7.84
2023-02-04T09:56:50.751Z,8.09
2023-02-04T09:59:23.675Z,8.20
2023-02-04T10:01:58.104Z,8.28
2023-02-04T10:04:25.317Z,8.39
2023-02-04T10:06:52.335Z,8.52
2023-02-04T10:09:19.575Z,8.72
2023-02-04T10:11:48.735Z,8.92
2023-02-04T10:14:21.708Z,9.17
2023-02-04T10:16:59.365Z,9.43
2023-02-04T10:19:28.860Z,9.65
2023-02-04T10:21:56.821Z,9.64
2023-02-04T10:24:26.717Z,9.65
2023-02-04T10:26:54.590Z,9.63
2023-02-04T10:29:25.779Z,9.49
2023-02-04T10:31:53.359Z,9.38
2023-02-04T10:34:40.054Z,9.16
2023-02-04T10:37:27.521Z,8.96
2023-02-04T10:39:54.686Z,8.78
2023-02-04T10:42:30.696Z,8.76
2023-02-04T10:44:58.550Z,8.88
2023-02-04T10:47:30.796Z,9.04
2023-02-04T10:50:19.300Z,9.24
2023-02-04T10:53:15.716Z,9.52
2023-02-04T10:55:46.838Z,9.51
2023-02-04T10:58:27.127Z,9.49
2023-02-04T11:00:54.388Z,9.49
2023-02-04T11:03:32.933Z,9.56
2023-02-04T11:06:01.397Z,9.65
2023-02-04T11:08:33.717Z,9.72
2023-02-04T11:11:17.099Z,9.63
2023-02-04T11:13:49.641Z,9.71
2023-02-04T11:16:26.243Z,9.61
2023-02-04T11:18:56.897Z,9.55
2023-02-04T11:21:41.559Z,9.63
2023-02-04T11:24:14.248Z,9.67
2023-02-04T11:26:47.608Z,9.68
2023-02-04T11:29:25.606Z,9.68
2023-02-04T11:31:52.502Z,9.69
2023-02-04T11:34:19.518Z,9.73
2023-02-04T11:37:09.104Z,9.89
2023-02-04T11:39:38.321Z,10.18
2023-02-04T11:42:25.169Z,10.49
2023-02-04T11:45:13.047Z,10.70
2023-02-04T11:47:40.649Z,10.98
2023-02-04T11:50:30.616Z,11.24
2023-02-04T11:53:02.021Z,11.32
2023-02-04T11:55:31.760Z,11.35
2023-02-04T11:57:58.895Z,11.40
2023-02-04T12:00:34.601Z,11.46
2023-02-04T12:03:21.352Z,11.36
2023-02-04T12:05:49.657Z,11.18
2023-02-04T12:08:22.275Z,10.97
2023-02-04T12:11:05.322Z,10.87
2023-02-04T12:13:33.288Z,10.70
2023-02-04T12:16:06.133Z,10.57
2023-02-04T12:18:35.253Z,10.63
2023-02-04T12:21:04.329Z,10.78
2023-02-04T12:23:31.648Z,10.94
2023-02-04T12:25:58.967Z,11.14
2023-02-04T12:28:27.985Z,11.38
2023-02-04T12:30:56.002Z,11.48
2023-02-04T12:33:23.263Z,11.51
2023-02-04T12:35:50.381Z,11.49
2023-02-04T12:38:18.373Z,11.40
2023-02-04T12:40:46.364Z,11.44
2023-02-04T12:43:13.258Z,11.59
2023-02-04T12:45:45.479Z,11.63
2023-02-04T12:48:13.922Z,11.69
2023-02-04T12:50:41.265Z,11.73
2023-02-04T12:53:08.902Z,11.61
2023-02-04T12:55:47.275Z,11.54
2023-02-04T12:58:14.302Z,11.36
2023-02-04T13:00:42.194Z,11.28
2023-02-04T13:03:09.099Z,11.34
2023-02-04T13:05:36.090Z,11.52
2023-02-04T13:08:03.013Z,11.84
2023-02-04T13:10:29.899Z,11.83
2023-02-04T13:12:56.815Z,11.62
2023-02-04T13:15:23.762Z,11.35
2023-02-04T13:17:50.728Z,11.15
2023-02-04T13:20:18.231Z,10.99
2023-02-04T13:22:45.159Z,10.72
2023-02-04T13:25:12.108Z,10.60
2023-02-04T13:27:39.525Z,10.68
2023-02-04T13:30:08.940Z,10.72
2023-02-04T13:32:35.897Z,10.79
2023-02-04T13:35:02.829Z,10.76
2023-02-04T13:37:29.693Z,10.78
2023-02-04T13:39:56.652Z,10.87
2023-02-04T13:42:23.598Z,10.86
2023-02-04T13:44:50.478Z,10.63
2023-02-04T13:47:17.418Z,10.47
2023-02-04T13:49:44.287Z,10.33
2023-02-04T13:52:11.215Z,10.11
2023-02-04T13:54:38.082Z,9.91
2023-02-04T13:57:05.598Z,9.91
2023-02-04T13:59:32.537Z,9.92
2023-02-04T14:01:59.513Z,9.92
2023-02-04T14:04:27.076Z,9.94
2023-02-04T14:06:55.056Z,9.92
2023-02-04T14:09:22.525Z,9.80
2023-02-04T14:11:49.410Z,9.78
2023-02-04T14:14:16.334Z,9.86
2023-02-04T14:16:43.317Z,9.81
2023-02-04T14:19:10.242Z,9.66
2023-02-04T14:21:37.271Z,9.46
2023-02-04T14:24:04.289Z,9.52
2023-02-04T14:26:31.225Z,9.57
2023-02-04T14:28:58.101Z,9.68
2023-02-04T14:31:24.974Z,9.92
2023-02-04T14:33:51.917Z,10.12
2023-02-04T14:36:18.932Z,10.04
2023-02-04T14:38:45.776Z,9.85
2023-02-04T14:41:16.193Z,9.70
2023-02-04T14:43:43.172Z,9.49
2023-02-04T14:46:10.192Z,9.47
2023-02-04T14:48:37.109Z,9.32
2023-02-04T14:51:04.690Z,9.18
2023-02-04T14:53:31.790Z,9.03
2023-02-04T14:55:58.691Z,8.99
2023-02-04T14:58:27.845Z,9.05
2023-02-04T15:00:55.549Z,9.05
2023-02-04T15:03:22.932Z,8.92
2023-02-04T15:05:49.818Z,8.75
2023-02-04T15:08:16.735Z,8.70
2023-02-04T15:10:43.606Z,8.62
2023-02-04T15:13:11.209Z,8.51
2023-02-04T15:15:38.163Z,8.48
2023-02-04T15:18:05.127Z,8.39
2023-02-04T15:20:32.273Z,8.33
2023-02-04T15:23:00.785Z,8.31
2023-02-04T15:25:27.982Z,8.20
2023-02-04T15:27:54.990Z,8.15
2023-02-04T15:30:21.921Z,8.07
2023-02-04T15:32:48.871Z,8.06
2023-02-04T15:35:15.779Z,8.04
2023-02-04T15:37:42.662Z,8.02
2023-02-04T15:40:10.744Z,7.97
2023-02-04T15:42:37.667Z,7.94
2023-02-04T15:45:05.414Z,7.88
2023-02-04T15:47:32.401Z,7.77
2023-02-04T15:49:59.387Z,7.71
2023-02-04T15:52:27.864Z,7.58
2023-02-04T15:54:56.036Z,7.50
2023-02-04T15:57:22.910Z,7.41
2023-02-04T15:59:49.803Z,7.33
2023-02-04T16:02:16.729Z,7.28
2023-02-04T16:04:45.222Z,7.17
2023-02-04T16:07:12.424Z,7.08
2023-02-04T16:09:39.466Z,7.02
2023-02-04T16:12:06.575Z,6.92
2023-02-04T16:14:33.493Z,6.86
2023-02-04T16:17:01.699Z,6.80
2023-02-04T16:19:29.149Z,6.80
2023-02-04T16:21:56.305Z,6.74
2023-02-04T16:24:23.235Z,6.73
2023-02-04T16:26:50.152Z,6.68
2023-02-04T16:29:17.321Z,6.71
2023-02-04T16:31:44.335Z,6.66
2023-02-04T16:34:11.289Z,6.70
2023-02-04T16:36:38.179Z,6.70
2023-02-04T16:39:05.053Z,6.67
2023-02-04T16:41:31.984Z,6.66
2023-02-04T16:44:00.072Z,6.55
2023-02-04T16:46:28.646Z,6.51
2023-02-04T16:48:55.644Z,6.46
2023-02-04T16:51:22.552Z,6.39
2023-02-04T16:53:50.375Z,6.39
2023-02-04T16:56:17.467Z,6.37
2023-02-04T16:58:45.547Z,6.30
2023-02-04T17:01:12.497Z,6.33
2023-02-04T17:03:39.845Z,6.24
2023-02-04T17:06:07.046Z,6.21
2023-02-04T17:08:34.019Z,6.17
2023-02-04T17:11:19.565Z,6.07
2023-02-04T17:13:46.508Z,5.95
2023-02-04T17:16:13.600Z,5.88
2023-02-04T17:18:40.517Z,5.86
2023-02-04T17:21:07.435Z,5.88
2023-02-04T17:23:35.372Z,5.85
2023-02-04T17:26:02.647Z,5.82
2023-02-04T17:28:29.563Z,5.81
2023-02-04T17:30:56.610Z,5.81
2023-02-04T17:33:23.630Z,5.85
2023-02-04T17:35:50.548Z,5.83
2023-02-04T17:38:17.467Z,5.81
2023-02-04T17:40:44.441Z,5.74
2023-02-04T17:43:11.352Z,5.70
2023-02-04T17:45:38.428Z,5.68
2023-02-04T17:48:05.487Z,5.66
2023-02-04T17:53:04.462Z,5.57
2023-02-04T17:55:33.943Z,5.55
2023-02-04T17:58:24.098Z,5.58
2023-02-04T18:00:53.223Z,5.50
2023-02-04T18:03:23.534Z,5.52
2023-02-04T18:05:54.489Z,5.48
2023-02-04T18:08:25.399Z,5.50
2023-02-04T18:10:55.137Z,5.48
2023-02-04T18:13:32.851Z,5.45
2023-02-04T18:16:08.128Z,5.37
2023-02-04T18:18:40.531Z,5.32
2023-02-04T18:21:28.178Z,5.33
2023-02-04T18:24:39.749Z,5.32
2023-02-04T18:27:18.012Z,5.28
2023-02-04T18:29:49.594Z,5.20
2023-02-04T18:32:37.304Z,5.19
2023-02-04T18:35:20.855Z,5.17
2023-02-04T18:37:51.146Z,5.14
2023-02-04T18:40:30.382Z,5.12
2023-02-04T18:43:13.995Z,5.08
2023-02-04T18:45:41.145Z,5.03
2023-02-04T18:48:19.899Z,5.08
2023-02-04T18:50:52.359Z,5.04
2023-02-04T18:53:28.777Z,4.97
2023-02-04T18:55:58.547Z,4.98
2023-02-04T18:58:37.579Z,4.93
2023-02-04T19:01:16.932Z,4.90
2023-02-04T19:03:53.639Z,4.90
2023-02-04T19:06:37.565Z,4.89
2023-02-04T19:09:10.404Z,4.91
2023-02-04T19:11:45.069Z,4.89
2023-02-04T19:14:31.161Z,4.90
2023-02-04T19:17:29.156Z,4.83
2023-02-04T19:20:01.921Z,4.82
2023-02-04T19:22:47.786Z,4.76
2023-02-04T19:25:35.787Z,4.71
2023-02-04T19:28:28.818Z,4.62
2023-02-04T19:31:01.857Z,4.56
2023-02-04T19:33:42.453Z,4.51
2023-02-04T19:36:30.246Z,4.45
2023-02-04T19:39:07.143Z,4.34
2023-02-04T19:41:46.999Z,4.31
2023-02-04T19:44:13.943Z,4.29
2023-02-04T19:46:41.986Z,4.27
2023-02-04T19:49:25.698Z,4.27
2023-02-04T19:51:58.474Z,4.19
2023-02-04T19:54:43.153Z,4.17
2023-02-04T19:57:25.507Z,4.12
2023-02-04T19:59:56.712Z,4.06
2023-02-04T20:02:36.523Z,4.05
2023-02-04T20:05:17.433Z,4.04
2023-02-04T20:07:44.318Z,3.96
2023-02-04T20:10:11.058Z,3.98
2023-02-04T20:12:40.718Z,3.91
2023-02-04T20:15:18.932Z,3.88
2023-02-04T20:17:48.345Z,3.86
2023-02-04T20:20:15.218Z,3.88
2023-02-04T20:22:54.470Z,3.85
2023-02-04T20:25:21.633Z,3.86
2023-02-04T20:27:58.255Z,3.78
2023-02-04T20:30:31.020Z,3.78
2023-02-04T20:33:19.822Z,3.73
2023-02-04T20:35:52.456Z,3.69
2023-02-04T20:38:20.425Z,3.63
2023-02-04T20:40:47.650Z,3.59
2023-02-04T20:43:19.792Z,3.55
2023-02-04T20:45:57.095Z,3.49
2023-02-04T20:48:43.978Z,3.46
2023-02-04T20:51:23.931Z,3.39
2023-02-04T20:53:53.094Z,3.38
2023-02-04T20:56:35.512Z,3.37
2023-02-04T20:59:24.875Z,3.32
2023-02-04T21:01:51.847Z,3.26
2023-02-04T21:04:34.415Z,3.23
2023-02-04T21:07:12.363Z,3.24
2023-02-04T21:09:40.123Z,3.19
2023-02-04T21:12:07.348Z,3.20
2023-02-04T21:14:34.564Z,3.16
2023-02-04T21:17:01.756Z,3.12
2023-02-04T21:19:28.776Z,3.09
2023-02-04T21:21:57.404Z,3.08
2023-02-04T21:24:26.244Z,3.09
2023-02-04T21:26:53.637Z,2.99
2023-02-04T21:29:20.542Z,3.06
2023-02-04T21:31:47.476Z,3.04
2023-02-04T21:34:15.675Z,3.01
2023-02-04T21:36:42.579Z,2.91
2023-02-04T21:39:09.458Z,2.92
2023-02-04T21:41:36.349Z,2.92
2023-02-04T21:44:03.699Z,2.86
2023-02-04T21:46:30.598Z,2.88
2023-02-04T21:48:57.526Z,2.82
2023-02-04T21:51:24.477Z,2.80
2023-02-04T21:53:51.362Z,2.78
2023-02-04T21:56:18.269Z,2.70
2023-02-04T21:58:45.157Z,2.70
2023-02-04T22:01:12.052Z,2.67
2023-02-04T22:03:38.965Z,2.81
2023-02-04T22:06:06.241Z,3.05
2023-02-04T22:08:33.176Z,3.14
2023-02-04T22:11:00.596Z,3.19
2023-02-04T22:13:27.533Z,3.22
2023-02-04T22:15:54.540Z,3.29
2023-02-04T22:18:21.642Z,3.28
2023-02-04T22:20:48.631Z,3.31
2023-02-04T22:23:16.578Z,3.29
2023-02-04T22:25:43.640Z,3.37
2023-02-04T22:28:10.611Z,3.40
2023-02-04T22:30:37.988Z,3.54
2023-02-04T22:33:05.143Z,3.68
2023-02-04T22:35:35.024Z,3.73
2023-02-04T22:38:03.261Z,3.84
2023-02-04T22:40:30.408Z,4.01
2023-02-04T22:42:57.461Z,4.10
2023-02-04T22:45:24.395Z,4.24
2023-02-04T22:47:51.257Z,4.39
2023-02-04T22:50:18.225Z,4.43
2023-02-04T22:52:45.127Z,4.31
2023-02-04T22:55:12.096Z,4.10
2023-02-04T22:57:39.046Z,3.88
2023-02-04T23:00:09.261Z,3.72
2023-02-04T23:02:36.302Z,3.69
2023-02-04T23:05:03.540Z,3.60
2023-02-04T23:07:31.210Z,3.58
2023-02-04T23:09:58.146Z,3.52
2023-02-04T23:12:25.283Z,3.42
2023-02-04T23:14:52.188Z,3.37
2023-02-04T23:17:19.101Z,3.50
2023-02-04T23:19:46.354Z,3.65
2023-02-04T23:22:14.503Z,3.95
2023-02-04T23:24:42.048Z,4.15
2023-02-04T23:27:11.219Z,4.14
2023-02-04T23:29:39.813Z,4.06
2023-02-04T23:32:07.611Z,4.06
2023-02-04T23:34:35.231Z,3.92
2023-02-04T23:37:02.393Z,3.86
2023-02-04T23:39:29.361Z,3.87
2023-02-04T23:41:56.705Z,4.19
2023-02-04T23:44:23.614Z,4.51
2023-02-04T23:46:50.546Z,4.75
2023-02-04T23:49:17.496Z,4.93
2023-02-04T23:51:44.460Z,4.98
2023-02-04T23:54:12.013Z,5.03
2023-02-04T23:56:38.989Z,5.12
2023-02-04T23:59:06.155Z,5.22
